sensor_id;sensor_type;location;lat;lon;timestamp;pressure;altitude;pressure_sealevel;temperature;humidity
6216;BME280;3141;49.234;9.326;2023-06-14T00:00:26;99201.97;;;17.47;56.09
6216;BME280;3141;49.234;9.326;2023-06-14T00:01:09;99194.34;;;17.44;56.40
6216;BME280;3141;49.234;9.326;2023-06-14T00:01:51;99195.00;;;17.46;56.00
6216;BME280;3141;49.234;9.326;2023-06-14T00:02:34;99195.97;;;17.52;55.70
6216;BME280;3141;49.234;9.326;2023-06-14T00:03:16;99192.13;;;17.48;55.95
6216;BME280;3141;49.234;9.326;2023-06-14T00:04:00;99197.47;;;17.48;55.97
6216;BME280;3141;49.234;9.326;2023-06-14T00:04:43;99196.19;;;17.50;55.81
6216;BME280;3141;49.234;9.326;2023-06-14T00:05:25;99196.41;;;17.49;56.04
6216;BME280;3141;49.234;9.326;2023-06-14T00:06:08;99195.38;;;17.43;56.12
6216;BME280;3141;49.234;9.326;2023-06-14T00:06:50;99206.28;;;17.42;56.22
6216;BME280;3141;49.234;9.326;2023-06-14T00:07:35;99199.53;;;17.39;56.29
6216;BME280;3141;49.234;9.326;2023-06-14T00:08:17;99202.81;;;17.41;56.38
6216;BME280;3141;49.234;9.326;2023-06-14T00:09:00;99199.91;;;17.36;56.52
6216;BME280;3141;49.234;9.326;2023-06-14T00:09:43;99203.41;;;17.37;56.67
6216;BME280;3141;49.234;9.326;2023-06-14T00:10:25;99202.41;;;17.38;56.32
6216;BME280;3141;49.234;9.326;2023-06-14T00:11:12;99204.03;;;17.39;56.40
6216;BME280;3141;49.234;9.326;2023-06-14T00:11:55;99200.13;;;17.41;56.34
6216;BME280;3141;49.234;9.326;2023-06-14T00:12:38;99193.53;;;17.44;56.07
6216;BME280;3141;49.234;9.326;2023-06-14T00:13:21;99201.38;;;17.32;56.68
6216;BME280;3141;49.234;9.326;2023-06-14T00:14:03;99200.38;;;17.26;56.69
6216;BME280;3141;49.234;9.326;2023-06-14T00:14:46;99194.19;;;17.26;56.61
6216;BME280;3141;49.234;9.326;2023-06-14T00:15:28;99193.19;;;17.27;56.51
6216;BME280;3141;49.234;9.326;2023-06-14T00:16:10;99199.75;;;17.24;56.61
6216;BME280;3141;49.234;9.326;2023-06-14T00:16:53;99200.00;;;17.16;57.13
6216;BME280;3141;49.234;9.326;2023-06-14T00:17:40;99192.19;;;17.15;57.10
6216;BME280;3141;49.234;9.326;2023-06-14T00:18:23;99195.47;;;17.17;57.06
6216;BME280;3141;49.234;9.326;2023-06-14T00:19:11;99191.75;;;17.18;56.78
6216;BME280;3141;49.234;9.326;2023-06-14T00:19:53;99194.25;;;17.13;57.21
6216;BME280;3141;49.234;9.326;2023-06-14T00:20:36;99191.16;;;17.09;57.31
6216;BME280;3141;49.234;9.326;2023-06-14T00:21:19;99189.72;;;17.07;57.29
6216;BME280;3141;49.234;9.326;2023-06-14T00:22:01;99189.53;;;17.02;57.62
6216;BME280;3141;49.234;9.326;2023-06-14T00:22:43;99186.47;;;16.98;57.65
6216;BME280;3141;49.234;9.326;2023-06-14T00:23:27;99189.94;;;16.99;57.77
6216;BME280;3141;49.234;9.326;2023-06-14T00:24:09;99188.50;;;16.96;57.76
6216;BME280;3141;49.234;9.326;2023-06-14T00:24:52;99193.06;;;16.96;57.75
6216;BME280;3141;49.234;9.326;2023-06-14T00:25:34;99187.50;;;16.97;57.44
6216;BME280;3141;49.234;9.326;2023-06-14T00:26:16;99191.00;;;16.98;57.71
6216;BME280;3141;49.234;9.326;2023-06-14T00:26:59;99192.44;;;16.94;57.76
6216;BME280;3141;49.234;9.326;2023-06-14T00:27:41;99190.78;;;16.93;57.67
6216;BME280;3141;49.234;9.326;2023-06-14T00:28:23;99193.66;;;16.91;57.44
6216;BME280;3141;49.234;9.326;2023-06-14T00:29:06;99192.25;;;16.89;57.64
6216;BME280;3141;49.234;9.326;2023-06-14T00:29:48;99191.41;;;16.88;57.75
6216;BME280;3141;49.234;9.326;2023-06-14T00:30:30;99188.94;;;16.87;57.77
6216;BME280;3141;49.234;9.326;2023-06-14T00:31:13;99198.81;;;16.86;57.79
6216;BME280;3141;49.234;9.326;2023-06-14T00:31:55;99189.38;;;16.84;57.65
6216;BME280;3141;49.234;9.326;2023-06-14T00:32:37;99195.94;;;16.81;57.91
6216;BME280;3141;49.234;9.326;2023-06-14T00:33:20;99190.59;;;16.81;57.83
6216;BME280;3141;49.234;9.326;2023-06-14T00:34:02;99192.44;;;16.81;57.81
6216;BME280;3141;49.234;9.326;2023-06-14T00:34:44;99196.75;;;16.82;58.04
6216;BME280;3141;49.234;9.326;2023-06-14T00:35:27;99194.09;;;16.82;57.90
6216;BME280;3141;49.234;9.326;2023-06-14T00:36:09;99189.38;;;16.84;57.82
6216;BME280;3141;49.234;9.326;2023-06-14T00:36:51;99186.72;;;16.84;57.90
6216;BME280;3141;49.234;9.326;2023-06-14T00:37:34;99195.75;;;16.89;57.29
6216;BME280;3141;49.234;9.326;2023-06-14T00:38:16;99190.16;;;16.84;57.85
6216;BME280;3141;49.234;9.326;2023-06-14T00:38:58;99190.16;;;16.84;57.92
6216;BME280;3141;49.234;9.326;2023-06-14T00:39:41;99192.25;;;16.89;57.61
6216;BME280;3141;49.234;9.326;2023-06-14T00:40:23;99185.66;;;16.85;57.68
6216;BME280;3141;49.234;9.326;2023-06-14T00:41:06;99191.63;;;16.87;57.88
6216;BME280;3141;49.234;9.326;2023-06-14T00:41:48;99193.25;;;16.88;57.43
6216;BME280;3141;49.234;9.326;2023-06-14T00:42:31;99190.56;;;16.88;57.69
6216;BME280;3141;49.234;9.326;2023-06-14T00:43:13;99191.22;;;16.83;57.49
6216;BME280;3141;49.234;9.326;2023-06-14T00:43:56;99190.19;;;16.91;57.14
6216;BME280;3141;49.234;9.326;2023-06-14T00:44:38;99192.84;;;16.97;57.03
6216;BME280;3141;49.234;9.326;2023-06-14T00:45:21;99187.69;;;17.02;56.66
6216;BME280;3141;49.234;9.326;2023-06-14T00:46:03;99190.59;;;16.94;57.56
6216;BME280;3141;49.234;9.326;2023-06-14T00:46:46;99183.38;;;16.95;57.18
6216;BME280;3141;49.234;9.326;2023-06-14T00:47:28;99189.56;;;16.95;57.00
6216;BME280;3141;49.234;9.326;2023-06-14T00:48:10;99194.06;;;16.95;57.09
6216;BME280;3141;49.234;9.326;2023-06-14T00:48:54;99187.06;;;17.00;56.84
6216;BME280;3141;49.234;9.326;2023-06-14T00:49:37;99189.75;;;16.94;57.05
6216;BME280;3141;49.234;9.326;2023-06-14T00:50:21;99191.19;;;16.90;57.39
6216;BME280;3141;49.234;9.326;2023-06-14T00:51:05;99187.50;;;16.78;59.01
6216;BME280;3141;49.234;9.326;2023-06-14T00:51:48;99189.38;;;16.77;60.21
6216;BME280;3141;49.234;9.326;2023-06-14T00:52:30;99195.13;;;16.68;61.25
6216;BME280;3141;49.234;9.326;2023-06-14T00:53:15;99190.81;;;16.67;61.67
6216;BME280;3141;49.234;9.326;2023-06-14T00:53:59;99190.63;;;16.62;62.60
6216;BME280;3141;49.234;9.326;2023-06-14T00:54:43;99188.97;;;16.48;62.75
6216;BME280;3141;49.234;9.326;2023-06-14T00:55:25;99190.38;;;16.44;63.36
6216;BME280;3141;49.234;9.326;2023-06-14T00:56:07;99195.50;;;16.39;63.57
6216;BME280;3141;49.234;9.326;2023-06-14T00:56:50;99198.38;;;16.31;63.69
6216;BME280;3141;49.234;9.326;2023-06-14T00:57:32;99191.38;;;16.30;63.77
6216;BME280;3141;49.234;9.326;2023-06-14T00:58:14;99199.19;;;16.25;64.21
6216;BME280;3141;49.234;9.326;2023-06-14T00:58:57;99197.94;;;16.20;64.46
6216;BME280;3141;49.234;9.326;2023-06-14T00:59:45;99194.47;;;16.27;63.99
6216;BME280;3141;49.234;9.326;2023-06-14T01:00:28;99201.66;;;16.26;64.15
6216;BME280;3141;49.234;9.326;2023-06-14T01:01:11;99203.50;;;16.32;63.61
6216;BME280;3141;49.234;9.326;2023-06-14T01:01:53;99202.69;;;16.45;63.06
6216;BME280;3141;49.234;9.326;2023-06-14T01:02:37;99200.00;;;16.45;62.69
6216;BME280;3141;49.234;9.326;2023-06-14T01:03:19;99197.19;;;16.46;62.51
6216;BME280;3141;49.234;9.326;2023-06-14T01:04:04;99203.72;;;16.44;62.81
6216;BME280;3141;49.234;9.326;2023-06-14T01:04:48;99198.41;;;16.50;62.45
6216;BME280;3141;49.234;9.326;2023-06-14T01:05:31;99194.53;;;16.53;62.58
6216;BME280;3141;49.234;9.326;2023-06-14T01:06:26;99196.16;;;16.60;61.70
6216;BME280;3141;49.234;9.326;2023-06-14T01:08:28;99196.97;;;16.61;61.78
6216;BME280;3141;49.234;9.326;2023-06-14T01:09:36;99200.47;;;16.68;61.01
6216;BME280;3141;49.234;9.326;2023-06-14T01:11:26;99198.41;;;16.70;61.12
6216;BME280;3141;49.234;9.326;2023-06-14T01:12:17;99199.44;;;16.75;60.64
6216;BME280;3141;49.234;9.326;2023-06-14T01:13:51;99200.88;;;16.58;61.66
6216;BME280;3141;49.234;9.326;2023-06-14T01:14:34;99200.47;;;16.55;61.83
6216;BME280;3141;49.234;9.326;2023-06-14T01:15:17;99202.09;;;16.56;61.81
6216;BME280;3141;49.234;9.326;2023-06-14T01:16:00;99195.16;;;16.55;61.78
6216;BME280;3141;49.234;9.326;2023-06-14T01:16:43;99201.09;;;16.63;61.18
6216;BME280;3141;49.234;9.326;2023-06-14T01:17:27;99200.25;;;16.63;61.14
6216;BME280;3141;49.234;9.326;2023-06-14T01:18:13;99203.97;;;16.62;60.96
6216;BME280;3141;49.234;9.326;2023-06-14T01:18:59;99208.88;;;16.65;60.85
6216;BME280;3141;49.234;9.326;2023-06-14T01:19:42;99193.88;;;16.64;60.64
6216;BME280;3141;49.234;9.326;2023-06-14T01:20:28;99203.75;;;16.70;60.34
6216;BME280;3141;49.234;9.326;2023-06-14T01:21:25;99207.03;;;16.78;59.73
6216;BME280;3141;49.234;9.326;2023-06-14T01:22:07;99200.44;;;16.81;59.41
6216;BME280;3141;49.234;9.326;2023-06-14T01:22:51;99204.97;;;16.87;59.28
6216;BME280;3141;49.234;9.326;2023-06-14T01:23:34;99205.78;;;16.81;59.31
6216;BME280;3141;49.234;9.326;2023-06-14T01:24:17;99197.59;;;16.82;59.05
6216;BME280;3141;49.234;9.326;2023-06-14T01:25:01;99199.44;;;16.75;59.17
6216;BME280;3141;49.234;9.326;2023-06-14T01:25:44;99200.47;;;16.68;59.42
6216;BME280;3141;49.234;9.326;2023-06-14T01:26:26;99201.72;;;16.72;58.71
6216;BME280;3141;49.234;9.326;2023-06-14T01:27:13;99193.28;;;16.75;58.74
6216;BME280;3141;49.234;9.326;2023-06-14T01:27:58;99198.00;;;16.73;58.72
6216;BME280;3141;49.234;9.326;2023-06-14T01:28:42;99195.97;;;16.68;58.92
6216;BME280;3141;49.234;9.326;2023-06-14T01:29:26;99197.59;;;16.69;58.87
6216;BME280;3141;49.234;9.326;2023-06-14T01:30:15;99202.09;;;16.62;59.01
6216;BME280;3141;49.234;9.326;2023-06-14T01:31:00;99202.94;;;16.56;59.37
6216;BME280;3141;49.234;9.326;2023-06-14T01:31:46;99202.09;;;16.43;59.73
6216;BME280;3141;49.234;9.326;2023-06-14T01:32:29;99205.34;;;16.32;60.31
6216;BME280;3141;49.234;9.326;2023-06-14T01:33:16;99204.09;;;16.28;60.36
6216;BME280;3141;49.234;9.326;2023-06-14T01:34:00;99201.66;;;16.26;60.46
6216;BME280;3141;49.234;9.326;2023-06-14T01:34:42;99202.69;;;16.25;60.68
6216;BME280;3141;49.234;9.326;2023-06-14T01:35:24;99195.69;;;16.24;60.42
6216;BME280;3141;49.234;9.326;2023-06-14T01:36:08;99206.78;;;16.28;60.39
6216;BME280;3141;49.234;9.326;2023-06-14T01:36:52;99201.22;;;16.23;60.74
6216;BME280;3141;49.234;9.326;2023-06-14T01:37:37;99205.56;;;16.24;60.81
6216;BME280;3141;49.234;9.326;2023-06-14T01:38:25;99205.34;;;16.25;60.63
6216;BME280;3141;49.234;9.326;2023-06-14T01:39:08;99208.63;;;16.27;60.61
6216;BME280;3141;49.234;9.326;2023-06-14T01:39:50;99206.34;;;16.24;60.72
6216;BME280;3141;49.234;9.326;2023-06-14T01:40:34;99208.22;;;16.24;60.83
6216;BME280;3141;49.234;9.326;2023-06-14T01:41:18;99210.28;;;16.28;60.75
6216;BME280;3141;49.234;9.326;2023-06-14T01:42:03;99212.72;;;16.30;60.50
6216;BME280;3141;49.234;9.326;2023-06-14T01:42:47;99203.31;;;16.34;60.38
6216;BME280;3141;49.234;9.326;2023-06-14T01:43:31;99212.13;;;16.41;59.94
6216;BME280;3141;49.234;9.326;2023-06-14T01:44:17;99206.19;;;16.39;59.94
6216;BME280;3141;49.234;9.326;2023-06-14T01:45:02;99208.22;;;16.37;60.17
6216;BME280;3141;49.234;9.326;2023-06-14T01:45:47;99207.00;;;16.39;59.87
6216;BME280;3141;49.234;9.326;2023-06-14T01:46:30;99208.84;;;16.39;59.79
6216;BME280;3141;49.234;9.326;2023-06-14T01:47:14;99208.22;;;16.37;60.46
6216;BME280;3141;49.234;9.326;2023-06-14T01:47:57;99213.56;;;16.37;60.35
6216;BME280;3141;49.234;9.326;2023-06-14T01:48:40;99204.72;;;16.36;60.18
6216;BME280;3141;49.234;9.326;2023-06-14T01:49:22;99208.84;;;16.32;60.16
6216;BME280;3141;49.234;9.326;2023-06-14T01:50:05;99214.56;;;16.23;61.01
6216;BME280;3141;49.234;9.326;2023-06-14T01:50:48;99209.22;;;16.16;61.60
6216;BME280;3141;49.234;9.326;2023-06-14T01:51:31;99203.91;;;16.23;61.01
6216;BME280;3141;49.234;9.326;2023-06-14T01:52:14;99208.63;;;16.27;60.75
6216;BME280;3141;49.234;9.326;2023-06-14T01:52:56;99212.53;;;16.31;60.33
6216;BME280;3141;49.234;9.326;2023-06-14T01:53:38;99215.59;;;16.35;60.31
6216;BME280;3141;49.234;9.326;2023-06-14T01:54:21;99209.84;;;16.31;60.36
6216;BME280;3141;49.234;9.326;2023-06-14T01:55:05;99207.81;;;16.27;60.64
6216;BME280;3141;49.234;9.326;2023-06-14T01:55:47;99211.72;;;16.31;60.49
6216;BME280;3141;49.234;9.326;2023-06-14T01:56:30;99210.06;;;16.30;60.32
6216;BME280;3141;49.234;9.326;2023-06-14T01:57:13;99208.22;;;16.24;60.56
6216;BME280;3141;49.234;9.326;2023-06-14T01:57:55;99209.03;;;16.24;60.63
6216;BME280;3141;49.234;9.326;2023-06-14T01:58:37;99210.69;;;16.25;60.52
6216;BME280;3141;49.234;9.326;2023-06-14T01:59:21;99212.72;;;16.30;59.97
6216;BME280;3141;49.234;9.326;2023-06-14T02:00:04;99205.75;;;16.35;59.70
6216;BME280;3141;49.234;9.326;2023-06-14T02:00:50;99207.81;;;16.33;59.67
6216;BME280;3141;49.234;9.326;2023-06-14T02:01:33;99208.22;;;16.37;59.49
6216;BME280;3141;49.234;9.326;2023-06-14T02:02:16;99216.22;;;16.43;59.25
6216;BME280;3141;49.234;9.326;2023-06-14T02:02:58;99221.81;;;16.48;58.73
6216;BME280;3141;49.234;9.326;2023-06-14T02:03:41;99217.69;;;16.46;58.99
6216;BME280;3141;49.234;9.326;2023-06-14T02:04:24;99219.34;;;16.47;58.66
6216;BME280;3141;49.234;9.326;2023-06-14T02:05:06;99210.69;;;16.38;59.07
6216;BME280;3141;49.234;9.326;2023-06-14T02:05:49;99218.91;;;16.37;59.12
6216;BME280;3141;49.234;9.326;2023-06-14T02:06:32;99222.59;;;16.36;59.31
6216;BME280;3141;49.234;9.326;2023-06-14T02:07:16;99216.66;;;16.34;59.16
6216;BME280;3141;49.234;9.326;2023-06-14T02:07:58;99216.44;;;16.35;59.08
6216;BME280;3141;49.234;9.326;2023-06-14T02:08:41;99224.44;;;16.35;58.92
6216;BME280;3141;49.234;9.326;2023-06-14T02:09:24;99220.94;;;16.35;59.17
6216;BME280;3141;49.234;9.326;2023-06-14T02:10:07;99218.69;;;16.32;58.85
6216;BME280;3141;49.234;9.326;2023-06-14T02:10:49;99220.53;;;16.31;58.89
6216;BME280;3141;49.234;9.326;2023-06-14T02:11:31;99216.00;;;16.18;59.40
6216;BME280;3141;49.234;9.326;2023-06-14T02:12:14;99226.22;;;16.08;59.89
6216;BME280;3141;49.234;9.326;2023-06-14T02:12:56;99213.69;;;15.96;60.39
6216;BME280;3141;49.234;9.326;2023-06-14T02:13:38;99216.59;;;16.01;60.26
6216;BME280;3141;49.234;9.326;2023-06-14T02:14:21;99215.53;;;15.95;60.37
6216;BME280;3141;49.234;9.326;2023-06-14T02:15:03;99221.28;;;15.92;60.71
6216;BME280;3141;49.234;9.326;2023-06-14T02:15:46;99216.16;;;15.97;60.10
6216;BME280;3141;49.234;9.326;2023-06-14T02:16:28;99212.25;;;15.93;60.52
6216;BME280;3141;49.234;9.326;2023-06-14T02:17:11;99210.19;;;15.89;60.54
6216;BME280;3141;49.234;9.326;2023-06-14T02:17:53;99210.63;;;15.92;60.40
6216;BME280;3141;49.234;9.326;2023-06-14T02:18:36;99219.25;;;16.01;59.99
6216;BME280;3141;49.234;9.326;2023-06-14T02:19:19;99225.00;;;16.11;59.53
6216;BME280;3141;49.234;9.326;2023-06-14T02:20:02;99220.09;;;16.14;59.23
6216;BME280;3141;49.234;9.326;2023-06-14T02:20:47;99225.22;;;16.16;59.19
6216;BME280;3141;49.234;9.326;2023-06-14T02:21:29;99220.50;;;16.11;59.83
6216;BME280;3141;49.234;9.326;2023-06-14T02:22:11;99223.53;;;15.95;60.31
6216;BME280;3141;49.234;9.326;2023-06-14T02:22:54;99223.94;;;15.92;60.60
6216;BME280;3141;49.234;9.326;2023-06-14T02:23:36;99222.91;;;15.93;60.44
6216;BME280;3141;49.234;9.326;2023-06-14T02:24:19;99231.31;;;15.90;60.46
6216;BME280;3141;49.234;9.326;2023-06-14T02:25:02;99229.06;;;15.94;60.07
6216;BME280;3141;49.234;9.326;2023-06-14T02:25:44;99227.63;;;15.98;60.13
6216;BME280;3141;49.234;9.326;2023-06-14T02:26:28;99224.78;;;15.99;59.85
6216;BME280;3141;49.234;9.326;2023-06-14T02:27:11;99222.72;;;15.95;60.17
6216;BME280;3141;49.234;9.326;2023-06-14T02:27:54;99225.78;;;15.98;59.93
6216;BME280;3141;49.234;9.326;2023-06-14T02:28:37;99222.28;;;15.98;59.94
6216;BME280;3141;49.234;9.326;2023-06-14T02:29:19;99228.66;;;15.90;60.56
6216;BME280;3141;49.234;9.326;2023-06-14T02:30:02;99217.78;;;15.85;60.86
6216;BME280;3141;49.234;9.326;2023-06-14T02:30:44;99221.44;;;15.84;60.77
6216;BME280;3141;49.234;9.326;2023-06-14T02:31:26;99216.53;;;15.81;60.87
6216;BME280;3141;49.234;9.326;2023-06-14T02:32:09;99223.88;;;15.79;61.09
6216;BME280;3141;49.234;9.326;2023-06-14T02:32:52;99218.75;;;15.78;60.86
6216;BME280;3141;49.234;9.326;2023-06-14T02:33:35;99227.78;;;15.77;61.13
6216;BME280;3141;49.234;9.326;2023-06-14T02:34:17;99226.97;;;15.76;61.33
6216;BME280;3141;49.234;9.326;2023-06-14T02:35:00;99232.06;;;15.71;61.69
6216;BME280;3141;49.234;9.326;2023-06-14T02:35:42;99230.47;;;15.77;61.17
6216;BME280;3141;49.234;9.326;2023-06-14T02:36:24;99232.91;;;15.78;61.00
6216;BME280;3141;49.234;9.326;2023-06-14T02:37:07;99224.94;;;15.85;60.93
6216;BME280;3141;49.234;9.326;2023-06-14T02:37:49;99233.97;;;15.90;60.50
6216;BME280;3141;49.234;9.326;2023-06-14T02:38:33;99230.91;;;15.93;60.15
6216;BME280;3141;49.234;9.326;2023-06-14T02:39:15;99224.94;;;15.91;60.05
6216;BME280;3141;49.234;9.326;2023-06-14T02:39:58;99229.06;;;15.87;60.38
6216;BME280;3141;49.234;9.326;2023-06-14T02:40:40;99230.25;;;15.78;60.86
6216;BME280;3141;49.234;9.326;2023-06-14T02:41:24;99224.09;;;15.78;60.92
6216;BME280;3141;49.234;9.326;2023-06-14T02:42:08;99222.47;;;15.83;60.47
6216;BME280;3141;49.234;9.326;2023-06-14T02:42:50;99227.19;;;15.81;60.87
6216;BME280;3141;49.234;9.326;2023-06-14T02:43:32;99221.00;;;15.81;60.57
6216;BME280;3141;49.234;9.326;2023-06-14T02:44:15;99221.22;;;15.79;60.56
6216;BME280;3141;49.234;9.326;2023-06-14T02:44:59;99228.63;;;15.84;60.43
6216;BME280;3141;49.234;9.326;2023-06-14T02:45:42;99219.38;;;15.80;60.39
6216;BME280;3141;49.234;9.326;2023-06-14T02:46:24;99222.25;;;15.72;60.93
6216;BME280;3141;49.234;9.326;2023-06-14T02:47:07;99219.53;;;15.65;61.39
6216;BME280;3141;49.234;9.326;2023-06-14T02:47:49;99221.59;;;15.63;61.83
6216;BME280;3141;49.234;9.326;2023-06-14T02:48:32;99218.13;;;15.69;61.33
6216;BME280;3141;49.234;9.326;2023-06-14T02:49:14;99220.38;;;15.72;61.54
6216;BME280;3141;49.234;9.326;2023-06-14T02:49:57;99224.50;;;15.75;61.18
6216;BME280;3141;49.234;9.326;2023-06-14T02:50:39;99223.25;;;15.77;60.66
6216;BME280;3141;49.234;9.326;2023-06-14T02:51:21;99221.22;;;15.79;60.66
6216;BME280;3141;49.234;9.326;2023-06-14T02:52:04;99221.22;;;15.73;61.05
6216;BME280;3141;49.234;9.326;2023-06-14T02:52:47;99228.78;;;15.69;61.45
6216;BME280;3141;49.234;9.326;2023-06-14T02:53:29;99221.22;;;15.79;60.56
6216;BME280;3141;49.234;9.326;2023-06-14T02:54:11;99227.81;;;15.83;60.34
6216;BME280;3141;49.234;9.326;2023-06-14T02:54:54;99228.41;;;15.79;60.26
6216;BME280;3141;49.234;9.326;2023-06-14T02:55:36;99223.66;;;15.68;60.79
6216;BME280;3141;49.234;9.326;2023-06-14T02:56:21;99228.56;;;15.64;60.94
6216;BME280;3141;49.234;9.326;2023-06-14T02:57:05;99227.75;;;15.70;60.39
6216;BME280;3141;49.234;9.326;2023-06-14T02:57:49;99225.69;;;15.66;60.75
6216;BME280;3141;49.234;9.326;2023-06-14T02:58:31;99230.03;;;15.73;60.25
6216;BME280;3141;49.234;9.326;2023-06-14T02:59:15;99220.00;;;15.75;60.07
6216;BME280;3141;49.234;9.326;2023-06-14T02:59:57;99232.91;;;15.78;60.02
6216;BME280;3141;49.234;9.326;2023-06-14T03:00:40;99233.31;;;15.75;59.92
6216;BME280;3141;49.234;9.326;2023-06-14T03:01:24;99226.97;;;15.76;60.01
6216;BME280;3141;49.234;9.326;2023-06-14T03:02:12;99233.53;;;15.80;59.72
6216;BME280;3141;49.234;9.326;2023-06-14T03:02:54;99234.31;;;15.74;59.85
6216;BME280;3141;49.234;9.326;2023-06-14T03:03:36;99231.03;;;15.72;59.81
6216;BME280;3141;49.234;9.326;2023-06-14T03:04:19;99228.97;;;15.68;60.09
6216;BME280;3141;49.234;9.326;2023-06-14T03:05:01;99230.59;;;15.69;59.99
6216;BME280;3141;49.234;9.326;2023-06-14T03:05:46;99232.03;;;15.65;60.39
6216;BME280;3141;49.234;9.326;2023-06-14T03:06:30;99230.59;;;15.69;60.09
6216;BME280;3141;49.234;9.326;2023-06-14T03:07:12;99229.41;;;15.71;59.83
6216;BME280;3141;49.234;9.326;2023-06-14T03:07:55;99226.09;;;15.63;60.54
6216;BME280;3141;49.234;9.326;2023-06-14T03:08:37;99230.59;;;15.62;60.40
6216;BME280;3141;49.234;9.326;2023-06-14T03:09:23;99222.38;;;15.64;60.41
6216;BME280;3141;49.234;9.326;2023-06-14T03:10:08;99227.09;;;15.62;60.54
6216;BME280;3141;49.234;9.326;2023-06-14T03:10:51;99232.03;;;15.65;60.21
6216;BME280;3141;49.234;9.326;2023-06-14T03:11:33;99231.84;;;15.66;60.31
6216;BME280;3141;49.234;9.326;2023-06-14T03:12:15;99240.78;;;15.52;61.04
6216;BME280;3141;49.234;9.326;2023-06-14T03:12:58;99241.97;;;15.43;61.84
6216;BME280;3141;49.234;9.326;2023-06-14T03:13:40;99237.03;;;15.40;62.05
6216;BME280;3141;49.234;9.326;2023-06-14T03:14:22;99243.22;;;15.47;61.47
6216;BME280;3141;49.234;9.326;2023-06-14T03:15:05;99234.63;;;15.45;61.60
6216;BME280;3141;49.234;9.326;2023-06-14T03:15:48;99236.25;;;15.46;61.62
6216;BME280;3141;49.234;9.326;2023-06-14T03:16:32;99236.66;;;15.43;61.84
6216;BME280;3141;49.234;9.326;2023-06-14T03:17:14;99239.94;;;15.45;61.92
6216;BME280;3141;49.234;9.326;2023-06-14T03:17:59;99236.06;;;15.48;61.97
6216;BME280;3141;49.234;9.326;2023-06-14T03:18:41;99241.81;;;15.51;62.10
6216;BME280;3141;49.234;9.326;2023-06-14T03:19:24;99241.44;;;15.54;62.00
6216;BME280;3141;49.234;9.326;2023-06-14T03:20:07;99238.34;;;15.57;61.62
6216;BME280;3141;49.234;9.326;2023-06-14T03:20:50;99233.88;;;15.64;61.39
6216;BME280;3141;49.234;9.326;2023-06-14T03:21:33;99240.41;;;15.62;61.48
6216;BME280;3141;49.234;9.326;2023-06-14T03:22:16;99240.00;;;15.58;61.89
6216;BME280;3141;49.234;9.326;2023-06-14T03:23:00;99236.53;;;15.58;61.52
6216;BME280;3141;49.234;9.326;2023-06-14T03:23:43;99236.75;;;15.63;61.42
6216;BME280;3141;49.234;9.326;2023-06-14T03:24:26;99241.25;;;15.62;60.92
6216;BME280;3141;49.234;9.326;2023-06-14T03:25:13;99242.28;;;15.61;61.21
6216;BME280;3141;49.234;9.326;2023-06-14T03:25:57;99241.66;;;15.59;61.03
6216;BME280;3141;49.234;9.326;2023-06-14T03:26:39;99245.94;;;15.54;61.75
6216;BME280;3141;49.234;9.326;2023-06-14T03:27:23;99244.88;;;15.48;61.80
6216;BME280;3141;49.234;9.326;2023-06-14T03:28:05;99249.38;;;15.48;62.18
6216;BME280;3141;49.234;9.326;2023-06-14T03:28:47;99246.09;;;15.46;62.09
6216;BME280;3141;49.234;9.326;2023-06-14T03:29:33;99250.59;;;15.45;62.13
6216;BME280;3141;49.234;9.326;2023-06-14T03:30:15;99250.59;;;15.45;62.14
6216;BME280;3141;49.234;9.326;2023-06-14T03:30:57;99249.56;;;15.46;62.21
6216;BME280;3141;49.234;9.326;2023-06-14T03:31:55;99256.19;;;15.57;61.65
6216;BME280;3141;49.234;9.326;2023-06-14T03:32:38;99253.13;;;15.60;61.63
6216;BME280;3141;49.234;9.326;2023-06-14T03:33:20;99247.81;;;15.60;61.43
6216;BME280;3141;49.234;9.326;2023-06-14T03:34:03;99254.78;;;15.61;61.84
6216;BME280;3141;49.234;9.326;2023-06-14T03:34:45;99248.47;;;15.68;61.52
6216;BME280;3141;49.234;9.326;2023-06-14T03:35:28;99256.28;;;15.76;61.11
6216;BME280;3141;49.234;9.326;2023-06-14T03:36:10;99254.38;;;15.70;60.96
6216;BME280;3141;49.234;9.326;2023-06-14T03:36:53;99252.75;;;15.63;61.71
6216;BME280;3141;49.234;9.326;2023-06-14T03:37:35;99247.75;;;15.53;62.21
6216;BME280;3141;49.234;9.326;2023-06-14T03:38:18;99252.47;;;15.51;61.79
6216;BME280;3141;49.234;9.326;2023-06-14T03:39:00;99257.41;;;15.54;61.85
6216;BME280;3141;49.234;9.326;2023-06-14T03:39:42;99251.22;;;15.47;62.02
6216;BME280;3141;49.234;9.326;2023-06-14T03:40:28;99258.59;;;15.45;62.42
6216;BME280;3141;49.234;9.326;2023-06-14T03:41:11;99256.75;;;15.46;62.12
6216;BME280;3141;49.234;9.326;2023-06-14T03:41:54;99259.63;;;15.44;62.76
6216;BME280;3141;49.234;9.326;2023-06-14T03:42:36;99260.84;;;15.48;62.47
6216;BME280;3141;49.234;9.326;2023-06-14T03:43:18;99259.22;;;15.47;62.79
6216;BME280;3141;49.234;9.326;2023-06-14T03:44:01;99259.63;;;15.44;62.88
6216;BME280;3141;49.234;9.326;2023-06-14T03:44:43;99262.88;;;15.46;62.49
6216;BME280;3141;49.234;9.326;2023-06-14T03:45:26;99260.28;;;15.53;62.58
6216;BME280;3141;49.234;9.326;2023-06-14T03:46:08;99256.56;;;15.54;62.39
6216;BME280;3141;49.234;9.326;2023-06-14T03:46:50;99254.34;;;15.57;62.26
6216;BME280;3141;49.234;9.326;2023-06-14T03:47:33;99268.06;;;15.54;62.56
6216;BME280;3141;49.234;9.326;2023-06-14T03:48:16;99258.06;;;15.63;61.89
6216;BME280;3141;49.234;9.326;2023-06-14T03:48:58;99263.81;;;15.60;62.08
6216;BME280;3141;49.234;9.326;2023-06-14T03:49:41;99265.44;;;15.61;62.11
6216;BME280;3141;49.234;9.326;2023-06-14T03:50:23;99261.72;;;15.62;61.92
6216;BME280;3141;49.234;9.326;2023-06-14T03:51:05;99262.78;;;15.67;61.77
6216;BME280;3141;49.234;9.326;2023-06-14T03:51:48;99274.94;;;15.76;61.43
6216;BME280;3141;49.234;9.326;2023-06-14T03:52:33;99264.50;;;15.81;60.86
6216;BME280;3141;49.234;9.326;2023-06-14T03:53:15;99274.81;;;15.91;60.60
6216;BME280;3141;49.234;9.326;2023-06-14T03:53:59;99271.94;;;15.92;60.43
6216;BME280;3141;49.234;9.326;2023-06-14T03:54:41;99271.31;;;15.90;60.50
6216;BME280;3141;49.234;9.326;2023-06-14T03:55:25;99271.53;;;15.95;60.20
6216;BME280;3141;49.234;9.326;2023-06-14T03:56:09;99275.03;;;15.96;60.08
6216;BME280;3141;49.234;9.326;2023-06-14T03:56:52;99272.31;;;15.89;60.63
6216;BME280;3141;49.234;9.326;2023-06-14T03:57:34;99268.00;;;15.88;60.83
6216;BME280;3141;49.234;9.326;2023-06-14T03:58:16;99275.03;;;15.96;60.71
6216;BME280;3141;49.234;9.326;2023-06-14T03:58:59;99272.94;;;15.98;60.53